Vejrstation Sortsø Strand
Vejrstation Sortsø Strands historiske vejrdata
Daily Summary for December 02, 2020 Units:  Both    English   Metric
Daily Weekly Monthly Yearly Custom
  High: Low: Average:
Temperature: 42.8 °F /  6.0 °C 35.6 °F /  2.0 °C 39.2 °F /  4 °C
Dew Point: 39.2 °F /  4.0 °C 32 °F /  0.0 °C 36.1 °F /  2.3 °C
Humidity: 90% 86% 88%
Wind Speed: 14.3mph /  23km/h - 6.4mph /  10.3km/h
Wind Gust: 9.9mph /  16km/h - -
Wind- - ESE
Pressure: 30.2 in /  1023.2 hPa 29.9 in /  1011.9 hPa -
Precipitation: 0 in /  0.00 mm    
Historical Graphs
 
 
Tabular Data for December 02, 2020
Time Temperature Dew Point Pressure Wind Wind Speed Wind Gust Humidity Rainfall Rate (Hourly) solar
00:04 42.8 °F /  6.0 °C 39.2 °F /  4.0 °C 30.2in /  1023.0hPa East 3.7mph /  6km/h 3.1mph /  5km/h 88% 0in /  0.00mm 0.00 W/m2
00:09 41 °F /  5.0 °C 39.2 °F /  4.0 °C 30.2in /  1023.1hPa East 3.7mph /  6km/h 2.5mph /  4km/h 88% 0in /  0.00mm 0.00 W/m2
00:14 41 °F /  5.0 °C 39.2 °F /  4.0 °C 30.2in /  1023.2hPa East 2.5mph /  4km/h 1.9mph /  3km/h 88% 0in /  0.00mm 0.00 W/m2
00:19 42.8 °F /  6.0 °C 39.2 °F /  4.0 °C 30.2in /  1023.2hPa East 6.2mph /  10km/h 4.3mph /  7km/h 88% 0in /  0.00mm 0.00 W/m2
00:24 42.8 °F /  6.0 °C 39.2 °F /  4.0 °C 30.2in /  1023.2hPa East 3.7mph /  6km/h 3.7mph /  6km/h 88% 0in /  0.00mm 0.00 W/m2
00:29 41 °F /  5.0 °C 39.2 °F /  4.0 °C 30.2in /  1023.1hPa East 5mph /  8km/h 4.3mph /  7km/h 88% 0in /  0.00mm 0.00 W/m2
00:34 42.8 °F /  6.0 °C 37.4 °F /  3.0 °C 30.2in /  1023.1hPa East 6.2mph /  10km/h 5mph /  8km/h 87% 0in /  0.00mm 0.00 W/m2
00:39 42.8 °F /  6.0 °C 39.2 °F /  4.0 °C 30.2in /  1023.1hPa East 6.2mph /  10km/h 5mph /  8km/h 88% 0in /  0.00mm 0.00 W/m2
00:44 42.8 °F /  6.0 °C 39.2 °F /  4.0 °C 30.2in /  1023.1hPa East 6.2mph /  10km/h 5mph /  8km/h 87% 0in /  0.00mm 0.00 W/m2
00:49 42.8 °F /  6.0 °C 39.2 °F /  4.0 °C 30.2in /  1023.1hPa East 6.2mph /  10km/h 5.6mph /  9km/h 87% 0in /  0.00mm 0.00 W/m2
00:54 42.8 °F /  6.0 °C 39.2 °F /  4.0 °C 30.2in /  1023.1hPa ENE 8.1mph /  13km/h 6.2mph /  10km/h 87% 0in /  0.00mm 0.00 W/m2
00:59 42.8 °F /  6.0 °C 39.2 °F /  4.0 °C 30.2in /  1023.1hPa ENE 9.3mph /  15km/h 6.8mph /  11km/h 87% 0in /  0.00mm 0.00 W/m2
01:04 42.8 °F /  6.0 °C 39.2 °F /  4.0 °C 30.2in /  1023.0hPa ENE 6.8mph /  11km/h 5mph /  8km/h 87% 0in /  0.00mm 0.00 W/m2
01:09 42.8 °F /  6.0 °C 39.2 °F /  4.0 °C 30.2in /  1023.0hPa ENE 6.8mph /  11km/h 5.6mph /  9km/h 86% 0in /  0.00mm 0.00 W/m2
01:14 42.8 °F /  6.0 °C 39.2 °F /  4.0 °C 30.2in /  1023.1hPa ENE 6.8mph /  11km/h 5.6mph /  9km/h 86% 0in /  0.00mm 0.00 W/m2
01:19 42.8 °F /  6.0 °C 39.2 °F /  4.0 °C 30.2in /  1023.0hPa ENE 6.2mph /  10km/h 5mph /  8km/h 86% 0in /  0.00mm 0.00 W/m2
01:24 42.8 °F /  6.0 °C 39.2 °F /  4.0 °C 30.2in /  1023.0hPa ENE 6.8mph /  11km/h 5.6mph /  9km/h 86% 0in /  0.00mm 0.00 W/m2
01:29 42.8 °F /  6.0 °C 39.2 °F /  4.0 °C 30.2in /  1022.9hPa ENE 6.2mph /  10km/h 5mph /  8km/h 86% 0in /  0.00mm 0.00 W/m2
01:34 42.8 °F /  6.0 °C 39.2 °F /  4.0 °C 30.2in /  1022.9hPa ENE 6.2mph /  10km/h 5mph /  8km/h 86% 0in /  0.00mm 0.00 W/m2
01:39 42.8 °F /  6.0 °C 39.2 °F /  4.0 °C 30.2in /  1022.9hPa ENE 6.2mph /  10km/h 4.3mph /  7km/h 86% 0in /  0.00mm 0.00 W/m2
01:44 42.8 °F /  6.0 °C 37.4 °F /  3.0 °C 30.2in /  1022.8hPa ENE 6.2mph /  10km/h 5mph /  8km/h 86% 0in /  0.00mm 0.00 W/m2
01:49 42.8 °F /  6.0 °C 37.4 °F /  3.0 °C 30.2in /  1022.7hPa ENE 6.8mph /  11km/h 5mph /  8km/h 86% 0in /  0.00mm 0.00 W/m2
01:54 42.8 °F /  6.0 °C 39.2 °F /  4.0 °C 30.2in /  1022.7hPa ENE 6.8mph /  11km/h 5.6mph /  9km/h 87% 0in /  0.00mm 0.00 W/m2
01:59 42.8 °F /  6.0 °C 39.2 °F /  4.0 °C 30.2in /  1022.7hPa ENE 6.2mph /  10km/h 5mph /  8km/h 87% 0in /  0.00mm 0.00 W/m2
02:04 42.8 °F /  6.0 °C 39.2 °F /  4.0 °C 30.2in /  1022.7hPa ENE 6.2mph /  10km/h 5mph /  8km/h 87% 0in /  0.00mm 0.00 W/m2
02:09 42.8 °F /  6.0 °C 39.2 °F /  4.0 °C 30.2in /  1022.7hPa East 10.6mph /  17km/h 8.7mph /  14km/h 87% 0in /  0.00mm 0.00 W/m2
02:14 42.8 °F /  6.0 °C 39.2 °F /  4.0 °C 30.2in /  1022.7hPa East 11.8mph /  19km/h 8.7mph /  14km/h 87% 0in /  0.00mm 0.00 W/m2
02:19 42.8 °F /  6.0 °C 39.2 °F /  4.0 °C 30.2in /  1022.7hPa East 8.1mph /  13km/h 6.8mph /  11km/h 87% 0in /  0.00mm 0.00 W/m2
02:24 42.8 °F /  6.0 °C 39.2 °F /  4.0 °C 30.2in /  1022.7hPa East 6.8mph /  11km/h 5mph /  8km/h 87% 0in /  0.00mm 0.00 W/m2
02:29 42.8 °F /  6.0 °C 39.2 °F /  4.0 °C 30.2in /  1022.7hPa East 6.8mph /  11km/h 6.2mph /  10km/h 87% 0in /  0.00mm 0.00 W/m2
02:34 42.8 °F /  6.0 °C 39.2 °F /  4.0 °C 30.2in /  1022.8hPa East 10.6mph /  17km/h 8.1mph /  13km/h 87% 0in /  0.00mm 0.00 W/m2
02:39 42.8 °F /  6.0 °C 39.2 °F /  4.0 °C 30.2in /  1022.8hPa East 9.3mph /  15km/h 8.1mph /  13km/h 87% 0in /  0.00mm 0.00 W/m2
02:44 42.8 °F /  6.0 °C 39.2 °F /  4.0 °C 30.2in /  1022.8hPa East 8.1mph /  13km/h 6.8mph /  11km/h 87% 0in /  0.00mm 0.00 W/m2
02:49 42.8 °F /  6.0 °C 39.2 °F /  4.0 °C 30.2in /  1022.8hPa East 9.9mph /  16km/h 7.5mph /  12km/h 87% 0in /  0.00mm 0.00 W/m2
02:54 42.8 °F /  6.0 °C 39.2 °F /  4.0 °C 30.2in /  1022.7hPa East 11.8mph /  19km/h 9.3mph /  15km/h 87% 0in /  0.00mm 0.00 W/m2
02:59 42.8 °F /  6.0 °C 39.2 °F /  4.0 °C 30.2in /  1022.7hPa East 10.6mph /  17km/h 8.1mph /  13km/h 87% 0in /  0.00mm 0.00 W/m2
03:04 42.8 °F /  6.0 °C 39.2 °F /  4.0 °C 30.2in /  1022.6hPa East 11.8mph /  19km/h 7.5mph /  12km/h 87% 0in /  0.00mm 0.00 W/m2
03:09 42.8 °F /  6.0 °C 39.2 °F /  4.0 °C 30.2in /  1022.6hPa East 11.8mph /  19km/h 6.8mph /  11km/h 87% 0in /  0.00mm 0.00 W/m2
03:14 42.8 °F /  6.0 °C 39.2 °F /  4.0 °C 30.2in /  1022.6hPa East 10.6mph /  17km/h 8.1mph /  13km/h 87% 0in /  0.00mm 0.00 W/m2
03:19 42.8 °F /  6.0 °C 39.2 °F /  4.0 °C 30.2in /  1022.6hPa East 10.6mph /  17km/h 8.1mph /  13km/h 87% 0in /  0.00mm 0.00 W/m2
03:24 42.8 °F /  6.0 °C 37.4 °F /  3.0 °C 30.2in /  1022.6hPa East 10.6mph /  17km/h 8.1mph /  13km/h 86% 0in /  0.00mm 0.00 W/m2
03:29 42.8 °F /  6.0 °C 37.4 °F /  3.0 °C 30.2in /  1022.6hPa East 11.8mph /  19km/h 9.9mph /  16km/h 87% 0in /  0.00mm 0.00 W/m2
03:34 42.8 °F /  6.0 °C 37.4 °F /  3.0 °C 30.2in /  1022.6hPa East 10.6mph /  17km/h 8.1mph /  13km/h 87% 0in /  0.00mm 0.00 W/m2
03:39 41 °F /  5.0 °C 37.4 °F /  3.0 °C 30.2in /  1022.6hPa East 10.6mph /  17km/h 7.5mph /  12km/h 87% 0in /  0.00mm 0.00 W/m2
03:44 41 °F /  5.0 °C 37.4 °F /  3.0 °C 30.2in /  1022.5hPa East 11.8mph /  19km/h 9.3mph /  15km/h 87% 0in /  0.00mm 0.00 W/m2
03:49 42.8 °F /  6.0 °C 37.4 °F /  3.0 °C 30.2in /  1022.5hPa East 11.8mph /  19km/h 9.3mph /  15km/h 87% 0in /  0.00mm 0.00 W/m2
03:54 42.8 °F /  6.0 °C 37.4 °F /  3.0 °C 30.2in /  1022.6hPa East 11.8mph /  19km/h 8.7mph /  14km/h 87% 0in /  0.00mm 0.00 W/m2
03:59 42.8 °F /  6.0 °C 37.4 °F /  3.0 °C 30.2in /  1022.5hPa East 10.6mph /  17km/h 8.1mph /  13km/h 87% 0in /  0.00mm 0.00 W/m2
04:04 41 °F /  5.0 °C 37.4 °F /  3.0 °C 30.2in /  1022.5hPa East 11.8mph /  19km/h 9.3mph /  15km/h 87% 0in /  0.00mm 0.00 W/m2
04:09 41 °F /  5.0 °C 37.4 °F /  3.0 °C 30.2in /  1022.5hPa East 10.6mph /  17km/h 8.1mph /  13km/h 87% 0in /  0.00mm 0.00 W/m2
04:14 41 °F /  5.0 °C 37.4 °F /  3.0 °C 30.2in /  1022.5hPa East 11.8mph /  19km/h 8.7mph /  14km/h 87% 0in /  0.00mm 0.00 W/m2
04:19 41 °F /  5.0 °C 37.4 °F /  3.0 °C 30.2in /  1022.4hPa East 10.6mph /  17km/h 8.7mph /  14km/h 87% 0in /  0.00mm 0.00 W/m2
04:24 41 °F /  5.0 °C 37.4 °F /  3.0 °C 30.2in /  1022.4hPa East 10.6mph /  17km/h 8.7mph /  14km/h 87% 0in /  0.00mm 0.00 W/m2
04:29 41 °F /  5.0 °C 37.4 °F /  3.0 °C 30.2in /  1022.3hPa East 9.3mph /  15km/h 5.6mph /  9km/h 87% 0in /  0.00mm 0.00 W/m2
04:34 41 °F /  5.0 °C 37.4 °F /  3.0 °C 30.2in /  1022.2hPa East 9.3mph /  15km/h 6.2mph /  10km/h 87% 0in /  0.00mm 0.00 W/m2
04:39 41 °F /  5.0 °C 37.4 °F /  3.0 °C 30.2in /  1022.2hPa East 9.9mph /  16km/h 7.5mph /  12km/h 87% 0in /  0.00mm 0.00 W/m2
04:44 41 °F /  5.0 °C 37.4 °F /  3.0 °C 30.2in /  1022.2hPa East 10.6mph /  17km/h 8.1mph /  13km/h 87% 0in /  0.00mm 0.00 W/m2
04:49 41 °F /  5.0 °C 37.4 °F /  3.0 °C 30.2in /  1022.2hPa East 10.6mph /  17km/h 8.7mph /  14km/h 87% 0in /  0.00mm 0.00 W/m2
04:54 41 °F /  5.0 °C 37.4 °F /  3.0 °C 30.2in /  1022.2hPa East 10.6mph /  17km/h 8.1mph /  13km/h 87% 0in /  0.00mm 0.00 W/m2
04:59 41 °F /  5.0 °C 37.4 °F /  3.0 °C 30.2in /  1022.2hPa East 9.3mph /  15km/h 6.8mph /  11km/h 87% 0in /  0.00mm 0.00 W/m2
05:04 41 °F /  5.0 °C 37.4 °F /  3.0 °C 30.2in /  1022.1hPa East 11.8mph /  19km/h 9.3mph /  15km/h 87% 0in /  0.00mm 0.00 W/m2
05:09 41 °F /  5.0 °C 37.4 °F /  3.0 °C 30.2in /  1022.1hPa East 10.6mph /  17km/h 7.5mph /  12km/h 87% 0in /  0.00mm 0.00 W/m2
05:14 41 °F /  5.0 °C 37.4 °F /  3.0 °C 30.2in /  1022.1hPa East 9.3mph /  15km/h 6.2mph /  10km/h 87% 0in /  0.00mm 0.00 W/m2
05:19 41 °F /  5.0 °C 37.4 °F /  3.0 °C 30.2in /  1022.0hPa East 8.1mph /  13km/h 6.8mph /  11km/h 87% 0in /  0.00mm 0.00 W/m2
05:24 41 °F /  5.0 °C 37.4 °F /  3.0 °C 30.2in /  1022.1hPa East 10.6mph /  17km/h 8.1mph /  13km/h 87% 0in /  0.00mm 0.00 W/m2
05:29 41 °F /  5.0 °C 37.4 °F /  3.0 °C 30.2in /  1022.1hPa East 10.6mph /  17km/h 8.7mph /  14km/h 87% 0in /  0.00mm 0.00 W/m2
05:34 41 °F /  5.0 °C 37.4 °F /  3.0 °C 30.2in /  1022.0hPa East 11.8mph /  19km/h 8.7mph /  14km/h 87% 0in /  0.00mm 0.00 W/m2
05:39 41 °F /  5.0 °C 37.4 °F /  3.0 °C 30.2in /  1021.9hPa East 11.8mph /  19km/h 9.3mph /  15km/h 87% 0in /  0.00mm 0.00 W/m2
05:44 41 °F /  5.0 °C 37.4 °F /  3.0 °C 30.2in /  1021.9hPa East 10.6mph /  17km/h 8.7mph /  14km/h 87% 0in /  0.00mm 0.00 W/m2
05:49 41 °F /  5.0 °C 37.4 °F /  3.0 °C 30.2in /  1021.9hPa East 10.6mph /  17km/h 9.3mph /  15km/h 87% 0in /  0.00mm 0.00 W/m2
05:54 41 °F /  5.0 °C 37.4 °F /  3.0 °C 30.2in /  1021.9hPa East 10.6mph /  17km/h 7.5mph /  12km/h 87% 0in /  0.00mm 0.00 W/m2
05:59 41 °F /  5.0 °C 37.4 °F /  3.0 °C 30.2in /  1021.9hPa East 6.8mph /  11km/h 5.6mph /  9km/h 87% 0in /  0.00mm 0.00 W/m2
06:04 41 °F /  5.0 °C 37.4 °F /  3.0 °C 30.2in /  1021.9hPa East 11.8mph /  19km/h 9.3mph /  15km/h 87% 0in /  0.00mm 0.00 W/m2
06:09 41 °F /  5.0 °C 37.4 °F /  3.0 °C 30.2in /  1021.9hPa East 10.6mph /  17km/h 7.5mph /  12km/h 87% 0in /  0.00mm 0.00 W/m2
06:14 41 °F /  5.0 °C 37.4 °F /  3.0 °C 30.2in /  1021.9hPa East 8.1mph /  13km/h 6.2mph /  10km/h 87% 0in /  0.00mm 0.00 W/m2
06:19 41 °F /  5.0 °C 37.4 °F /  3.0 °C 30.2in /  1021.9hPa East 9.9mph /  16km/h 7.5mph /  12km/h 87% 0in /  0.00mm 0.00 W/m2
06:24 41 °F /  5.0 °C 37.4 °F /  3.0 °C 30.2in /  1021.9hPa East 10.6mph /  17km/h 8.7mph /  14km/h 87% 0in /  0.00mm 0.00 W/m2
06:29 41 °F /  5.0 °C 37.4 °F /  3.0 °C 30.2in /  1021.8hPa East 9.3mph /  15km/h 7.5mph /  12km/h 87% 0in /  0.00mm 0.00 W/m2
06:34 41 °F /  5.0 °C 37.4 °F /  3.0 °C 30.2in /  1021.8hPa East 9.3mph /  15km/h 7.5mph /  12km/h 87% 0in /  0.00mm 0.00 W/m2
06:39 41 °F /  5.0 °C 37.4 °F /  3.0 °C 30.2in /  1021.7hPa East 9.3mph /  15km/h 6.8mph /  11km/h 87% 0in /  0.00mm 0.00 W/m2
06:44 41 °F /  5.0 °C 37.4 °F /  3.0 °C 30.2in /  1021.7hPa East 9.3mph /  15km/h 6.2mph /  10km/h 87% 0in /  0.00mm 0.00 W/m2
06:49 41 °F /  5.0 °C 37.4 °F /  3.0 °C 30.2in /  1021.7hPa East 9.3mph /  15km/h 6.8mph /  11km/h 87% 0in /  0.00mm 0.00 W/m2
06:54 41 °F /  5.0 °C 37.4 °F /  3.0 °C 30.2in /  1021.7hPa East 9.9mph /  16km/h 7.5mph /  12km/h 87% 0in /  0.00mm 0.00 W/m2
06:59 41 °F /  5.0 °C 37.4 °F /  3.0 °C 30.2in /  1021.8hPa East 10.6mph /  17km/h 7.5mph /  12km/h 87% 0in /  0.00mm 0.00 W/m2
07:04 41 °F /  5.0 °C 37.4 °F /  3.0 °C 30.2in /  1021.8hPa East 10.6mph /  17km/h 8.1mph /  13km/h 87% 0in /  0.00mm 0.00 W/m2
07:09 41 °F /  5.0 °C 37.4 °F /  3.0 °C 30.2in /  1021.8hPa East 11.8mph /  19km/h 8.7mph /  14km/h 87% 0in /  0.00mm 0.00 W/m2
07:14 41 °F /  5.0 °C 37.4 °F /  3.0 °C 30.2in /  1021.6hPa East 11.8mph /  19km/h 8.1mph /  13km/h 87% 0in /  0.00mm 0.00 W/m2
07:19 41 °F /  5.0 °C 37.4 °F /  3.0 °C 30.2in /  1021.7hPa East 9.9mph /  16km/h 8.1mph /  13km/h 87% 0in /  0.00mm 0.00 W/m2
07:24 41 °F /  5.0 °C 37.4 °F /  3.0 °C 30.2in /  1021.6hPa East 10.6mph /  17km/h 7.5mph /  12km/h 87% 0in /  0.00mm 0.00 W/m2
07:29 41 °F /  5.0 °C 37.4 °F /  3.0 °C 30.2in /  1021.6hPa East 6.2mph /  10km/h 1.9mph /  3km/h 87% 0in /  0.00mm 0.00 W/m2
07:34 41 °F /  5.0 °C 37.4 °F /  3.0 °C 30.2in /  1021.6hPa East 8.1mph /  13km/h 6.8mph /  11km/h 87% 0in /  0.00mm 0.00 W/m2
07:39 41 °F /  5.0 °C 37.4 °F /  3.0 °C 30.2in /  1021.5hPa East 9.3mph /  15km/h 6.8mph /  11km/h 88% 0in /  0.00mm 0.00 W/m2
07:44 41 °F /  5.0 °C 37.4 °F /  3.0 °C 30.2in /  1021.5hPa East 9.3mph /  15km/h 5.6mph /  9km/h 88% 0in /  0.00mm 0.00 W/m2
07:49 41 °F /  5.0 °C 37.4 °F /  3.0 °C 30.2in /  1021.5hPa East 8.7mph /  14km/h 6.8mph /  11km/h 88% 0in /  0.00mm 0.00 W/m2
07:54 41 °F /  5.0 °C 37.4 °F /  3.0 °C 30.2in /  1021.5hPa East 9.3mph /  15km/h 6.2mph /  10km/h 88% 0in /  0.00mm 0.00 W/m2
07:59 41 °F /  5.0 °C 37.4 °F /  3.0 °C 30.2in /  1021.5hPa East 9.3mph /  15km/h 6.8mph /  11km/h 88% 0in /  0.00mm 0.00 W/m2
08:04 41 °F /  5.0 °C 37.4 °F /  3.0 °C 30.2in /  1021.5hPa East 9.3mph /  15km/h 6.2mph /  10km/h 88% 0in /  0.00mm 0.00 W/m2
08:09 41 °F /  5.0 °C 37.4 °F /  3.0 °C 30.2in /  1021.5hPa East 10.6mph /  17km/h 8.1mph /  13km/h 88% 0in /  0.00mm 0.00 W/m2
08:14 41 °F /  5.0 °C 37.4 °F /  3.0 °C 30.2in /  1021.4hPa East 10.6mph /  17km/h 7.5mph /  12km/h 88% 0in /  0.00mm 0.00 W/m2
08:19 41 °F /  5.0 °C 37.4 °F /  3.0 °C 30.2in /  1021.4hPa East 10.6mph /  17km/h 7.5mph /  12km/h 88% 0in /  0.00mm 0.00 W/m2
08:24 41 °F /  5.0 °C 37.4 °F /  3.0 °C 30.2in /  1021.4hPa ESE 9.3mph /  15km/h 4.3mph /  7km/h 88% 0in /  0.00mm 0.00 W/m2
08:29 41 °F /  5.0 °C 37.4 °F /  3.0 °C 30.2in /  1021.4hPa ESE 5mph /  8km/h 1.2mph /  2km/h 88% 0in /  0.00mm 0.00 W/m2
08:34 41 °F /  5.0 °C 37.4 °F /  3.0 °C 30.2in /  1021.4hPa ESE 4.3mph /  7km/h 1.2mph /  2km/h 88% 0in /  0.00mm 0.00 W/m2
08:39 41 °F /  5.0 °C 37.4 °F /  3.0 °C 30.2in /  1021.4hPa ESE 5mph /  8km/h 1.9mph /  3km/h 88% 0in /  0.00mm 0.00 W/m2
08:44 41 °F /  5.0 °C 37.4 °F /  3.0 °C 30.2in /  1021.3hPa ESE 5mph /  8km/h 1.9mph /  3km/h 89% 0in /  0.00mm 0.00 W/m2
08:49 41 °F /  5.0 °C 37.4 °F /  3.0 °C 30.2in /  1021.3hPa Calm     89% 0in /  0.00mm 0.00 W/m2
08:54 41 °F /  5.0 °C 37.4 °F /  3.0 °C 30.2in /  1021.3hPa ESE 8.7mph /  14km/h 2.5mph /  4km/h 89% 0in /  0.00mm 0.00 W/m2
08:59 39.2 °F /  4.0 °C 37.4 °F /  3.0 °C 30.2in /  1021.3hPa ESE 9.3mph /  15km/h 2.5mph /  4km/h 89% 0in /  0.00mm 0.00 W/m2
09:04 39.2 °F /  4.0 °C 37.4 °F /  3.0 °C 30.2in /  1021.2hPa ESE 5mph /  8km/h 1.2mph /  2km/h 89% 0in /  0.00mm 0.00 W/m2
09:09 39.2 °F /  4.0 °C 37.4 °F /  3.0 °C 30.2in /  1021.2hPa ESE 5mph /  8km/h 3.1mph /  5km/h 89% 0in /  0.00mm 0.00 W/m2
09:14 39.2 °F /  4.0 °C 37.4 °F /  3.0 °C 30.2in /  1021.1hPa ESE 6.2mph /  10km/h 3.7mph /  6km/h 89% 0in /  0.00mm 0.00 W/m2
09:19 39.2 °F /  4.0 °C 35.6 °F /  2.0 °C 30.2in /  1021.1hPa SE 6.2mph /  10km/h 1.2mph /  2km/h 89% 0in /  0.00mm 0.00 W/m2
09:24 39.2 °F /  4.0 °C 35.6 °F /  2.0 °C 30.2in /  1021.0hPa SE 5mph /  8km/h 1.9mph /  3km/h 89% 0in /  0.00mm 0.00 W/m2
09:29 39.2 °F /  4.0 °C 35.6 °F /  2.0 °C 30.2in /  1021.0hPa Calm     89% 0in /  0.00mm 0.00 W/m2
09:34 39.2 °F /  4.0 °C 35.6 °F /  2.0 °C 30.2in /  1021.0hPa SE 6.2mph /  10km/h 3.1mph /  5km/h 89% 0in /  0.00mm 0.00 W/m2
09:39 39.2 °F /  4.0 °C 35.6 °F /  2.0 °C 30.2in /  1021.0hPa SE 6.8mph /  11km/h 3.1mph /  5km/h 89% 0in /  0.00mm 0.00 W/m2
09:44 39.2 °F /  4.0 °C 35.6 °F /  2.0 °C 30.2in /  1020.9hPa SE 6.8mph /  11km/h 2.5mph /  4km/h 89% 0in /  0.00mm 0.00 W/m2
09:49 39.2 °F /  4.0 °C 35.6 °F /  2.0 °C 30.2in /  1020.9hPa SE 5.6mph /  9km/h 1.2mph /  2km/h 90% 0in /  0.00mm 0.00 W/m2
09:54 39.2 °F /  4.0 °C 35.6 °F /  2.0 °C 30.1in /  1020.8hPa SE 4.3mph /  7km/h 1.9mph /  3km/h 90% 0in /  0.00mm 0.00 W/m2
09:59 39.2 °F /  4.0 °C 35.6 °F /  2.0 °C 30.1in /  1020.8hPa SE 6.8mph /  11km/h 2.5mph /  4km/h 90% 0in /  0.00mm 0.00 W/m2
10:04 39.2 °F /  4.0 °C 35.6 °F /  2.0 °C 30.2in /  1020.9hPa SE 5mph /  8km/h 2.5mph /  4km/h 90% 0in /  0.00mm 0.00 W/m2
10:09 39.2 °F /  4.0 °C 35.6 °F /  2.0 °C 30.1in /  1020.8hPa SE 3.7mph /  6km/h 0.6mph /  1km/h 90% 0in /  0.00mm 0.00 W/m2
10:14 39.2 °F /  4.0 °C 35.6 °F /  2.0 °C 30.1in /  1020.8hPa SE 1.2mph /  2km/h   90% 0in /  0.00mm 0.00 W/m2
10:19 39.2 °F /  4.0 °C 35.6 °F /  2.0 °C 30.1in /  1020.8hPa SE 3.7mph /  6km/h 1.2mph /  2km/h 90% 0in /  0.00mm 0.00 W/m2
10:24 39.2 °F /  4.0 °C 35.6 °F /  2.0 °C 30.1in /  1020.7hPa Calm     90% 0in /  0.00mm 0.00 W/m2
10:29 39.2 °F /  4.0 °C 35.6 °F /  2.0 °C 30.1in /  1020.7hPa SE 6.8mph /  11km/h 2.5mph /  4km/h 90% 0in /  0.00mm 0.00 W/m2
10:34 39.2 °F /  4.0 °C 35.6 °F /  2.0 °C 30.1in /  1020.6hPa SE 9.3mph /  15km/h 3.7mph /  6km/h 90% 0in /  0.00mm 0.00 W/m2
10:39 39.2 °F /  4.0 °C 35.6 °F /  2.0 °C 30.1in /  1020.5hPa SE 6.8mph /  11km/h 3.1mph /  5km/h 90% 0in /  0.00mm 0.00 W/m2
10:44 39.2 °F /  4.0 °C 35.6 °F /  2.0 °C 30.1in /  1020.5hPa SE 6.2mph /  10km/h 3.1mph /  5km/h 90% 0in /  0.00mm 0.00 W/m2
10:49 39.2 °F /  4.0 °C 35.6 °F /  2.0 °C 30.1in /  1020.4hPa SE 4.3mph /  7km/h 2.5mph /  4km/h 90% 0in /  0.00mm 0.00 W/m2
10:54 39.2 °F /  4.0 °C 35.6 °F /  2.0 °C 30.1in /  1020.4hPa SE 6.8mph /  11km/h 3.1mph /  5km/h 90% 0in /  0.00mm 0.00 W/m2
10:59 39.2 °F /  4.0 °C 35.6 °F /  2.0 °C 30.1in /  1020.3hPa SE 6.2mph /  10km/h 2.5mph /  4km/h 90% 0in /  0.00mm 0.00 W/m2
11:04 39.2 °F /  4.0 °C 35.6 °F /  2.0 °C 30.1in /  1020.3hPa SE 6.2mph /  10km/h 2.5mph /  4km/h 90% 0in /  0.00mm 0.00 W/m2
11:09 39.2 °F /  4.0 °C 35.6 °F /  2.0 °C 30.1in /  1020.1hPa SE 5.6mph /  9km/h 2.5mph /  4km/h 90% 0in /  0.00mm 0.00 W/m2
11:14 39.2 °F /  4.0 °C 37.4 °F /  3.0 °C 30.1in /  1020.1hPa SE 6.2mph /  10km/h 3.7mph /  6km/h 90% 0in /  0.00mm 0.00 W/m2
11:19 39.2 °F /  4.0 °C 37.4 °F /  3.0 °C 30.1in /  1019.9hPa SE 6.2mph /  10km/h 3.7mph /  6km/h 90% 0in /  0.00mm 0.00 W/m2
11:24 39.2 °F /  4.0 °C 37.4 °F /  3.0 °C 30.1in /  1019.9hPa SE 5mph /  8km/h 2.5mph /  4km/h 90% 0in /  0.00mm 0.00 W/m2
11:29 39.2 °F /  4.0 °C 37.4 °F /  3.0 °C 30.1in /  1019.8hPa SE 4.3mph /  7km/h 1.9mph /  3km/h 90% 0in /  0.00mm 0.00 W/m2
11:34 39.2 °F /  4.0 °C 35.6 °F /  2.0 °C 30.1in /  1019.7hPa SE 6.8mph /  11km/h 3.7mph /  6km/h 90% 0in /  0.00mm 0.00 W/m2
11:39 39.2 °F /  4.0 °C 35.6 °F /  2.0 °C 30.1in /  1019.6hPa SE 6.8mph /  11km/h 3.7mph /  6km/h 90% 0in /  0.00mm 0.00 W/m2
11:44 39.2 °F /  4.0 °C 37.4 °F /  3.0 °C 30.1in /  1019.5hPa SE 6.8mph /  11km/h 3.7mph /  6km/h 90% 0in /  0.00mm 0.00 W/m2
11:49 39.2 °F /  4.0 °C 37.4 °F /  3.0 °C 30.1in /  1019.4hPa SE 6.2mph /  10km/h 3.7mph /  6km/h 90% 0in /  0.00mm 0.00 W/m2
11:54 39.2 °F /  4.0 °C 37.4 °F /  3.0 °C 30.1in /  1019.3hPa SE 5.6mph /  9km/h 3.7mph /  6km/h 90% 0in /  0.00mm 0.00 W/m2
11:59 39.2 °F /  4.0 °C 37.4 °F /  3.0 °C 30.1in /  1019.3hPa Calm     90% 0in /  0.00mm 0.00 W/m2
12:04 39.2 °F /  4.0 °C 37.4 °F /  3.0 °C 30.1in /  1019.2hPa SE 3.7mph /  6km/h 1.2mph /  2km/h 90% 0in /  0.00mm 0.00 W/m2
12:09 39.2 °F /  4.0 °C 37.4 °F /  3.0 °C 30.1in /  1019.1hPa SE 3.7mph /  6km/h 1.9mph /  3km/h 90% 0in /  0.00mm 0.00 W/m2
12:14 39.2 °F /  4.0 °C 37.4 °F /  3.0 °C 30.1in /  1019.0hPa Calm     90% 0in /  0.00mm 0.00 W/m2
12:19 39.2 °F /  4.0 °C 37.4 °F /  3.0 °C 30.1in /  1018.9hPa Calm     90% 0in /  0.00mm 0.00 W/m2
12:24 39.2 °F /  4.0 °C 37.4 °F /  3.0 °C 30.1in /  1018.9hPa Calm     90% 0in /  0.00mm 0.00 W/m2
12:29 39.2 °F /  4.0 °C 37.4 °F /  3.0 °C 30.1in /  1018.8hPa Calm     90% 0in /  0.00mm 0.00 W/m2
12:34 39.2 °F /  4.0 °C 37.4 °F /  3.0 °C 30.1in /  1018.7hPa SE 6.2mph /  10km/h 3.7mph /  6km/h 90% 0in /  0.00mm 0.00 W/m2
12:39 39.2 °F /  4.0 °C 37.4 °F /  3.0 °C 30.1in /  1018.7hPa SE 5mph /  8km/h 3.7mph /  6km/h 90% 0in /  0.00mm 0.00 W/m2
12:44 39.2 °F /  4.0 °C 37.4 °F /  3.0 °C 30.1in /  1018.6hPa SE 5mph /  8km/h 4.3mph /  7km/h 90% 0in /  0.00mm 0.00 W/m2
12:49 39.2 °F /  4.0 °C 37.4 °F /  3.0 °C 30.1in /  1018.5hPa SE 9.3mph /  15km/h 4.3mph /  7km/h 90% 0in /  0.00mm 0.00 W/m2
12:54 39.2 °F /  4.0 °C 37.4 °F /  3.0 °C 30.1in /  1018.4hPa ESE 10.6mph /  17km/h 5mph /  8km/h 90% 0in /  0.00mm 0.00 W/m2
12:59 39.2 °F /  4.0 °C 37.4 °F /  3.0 °C 30.1in /  1018.4hPa ESE 6.8mph /  11km/h 5mph /  8km/h 90% 0in /  0.00mm 0.00 W/m2
13:04 39.2 °F /  4.0 °C 37.4 °F /  3.0 °C 30.1in /  1018.3hPa ESE 6.8mph /  11km/h 4.3mph /  7km/h 90% 0in /  0.00mm 0.00 W/m2
13:09 39.2 °F /  4.0 °C 37.4 °F /  3.0 °C 30.1in /  1018.3hPa ESE 6.2mph /  10km/h 4.3mph /  7km/h 89% 0in /  0.00mm 0.00 W/m2
13:14 39.2 °F /  4.0 °C 37.4 °F /  3.0 °C 30.1in /  1018.2hPa ESE 6.2mph /  10km/h 3.7mph /  6km/h 89% 0in /  0.00mm 0.00 W/m2
13:19 39.2 °F /  4.0 °C 37.4 °F /  3.0 °C 30.1in /  1018.1hPa SE 9.3mph /  15km/h 5mph /  8km/h 89% 0in /  0.00mm 0.00 W/m2
13:24 39.2 °F /  4.0 °C 37.4 °F /  3.0 °C 30.1in /  1018.0hPa SE 5mph /  8km/h 3.1mph /  5km/h 89% 0in /  0.00mm 0.00 W/m2
13:29 39.2 °F /  4.0 °C 37.4 °F /  3.0 °C 30.1in /  1017.9hPa SE 5mph /  8km/h 2.5mph /  4km/h 89% 0in /  0.00mm 0.00 W/m2
13:34 39.2 °F /  4.0 °C 37.4 °F /  3.0 °C 30.1in /  1017.8hPa SE 6.8mph /  11km/h 3.7mph /  6km/h 89% 0in /  0.00mm 0.00 W/m2
13:39 39.2 °F /  4.0 °C 37.4 °F /  3.0 °C 30.1in /  1017.8hPa SE 6.8mph /  11km/h 3.1mph /  5km/h 89% 0in /  0.00mm 0.00 W/m2
13:44 39.2 °F /  4.0 °C 37.4 °F /  3.0 °C 30.1in /  1017.6hPa SE 6.8mph /  11km/h 3.7mph /  6km/h 89% 0in /  0.00mm 0.00 W/m2
13:49 39.2 °F /  4.0 °C 37.4 °F /  3.0 °C 30.1in /  1017.6hPa SE 6.2mph /  10km/h 1.9mph /  3km/h 89% 0in /  0.00mm 0.00 W/m2
13:54 39.2 °F /  4.0 °C 37.4 °F /  3.0 °C 30.1in /  1017.6hPa SE 6.2mph /  10km/h 2.5mph /  4km/h 89% 0in /  0.00mm 0.00 W/m2
13:59 39.2 °F /  4.0 °C 37.4 °F /  3.0 °C 30.1in /  1017.5hPa SE 6.8mph /  11km/h 3.7mph /  6km/h 89% 0in /  0.00mm 0.00 W/m2
14:04 39.2 °F /  4.0 °C 37.4 °F /  3.0 °C 30in /  1017.4hPa SE 6.8mph /  11km/h 2.5mph /  4km/h 89% 0in /  0.00mm 0.00 W/m2
14:09 39.2 °F /  4.0 °C 37.4 °F /  3.0 °C 30in /  1017.4hPa SE 5mph /  8km/h 1.9mph /  3km/h 89% 0in /  0.00mm 0.00 W/m2
14:14 39.2 °F /  4.0 °C 37.4 °F /  3.0 °C 30in /  1017.4hPa SE 6.8mph /  11km/h 3.7mph /  6km/h 89% 0in /  0.00mm 0.00 W/m2
14:19 39.2 °F /  4.0 °C 37.4 °F /  3.0 °C 30in /  1017.4hPa SE 6.2mph /  10km/h 3.7mph /  6km/h 88% 0in /  0.00mm 0.00 W/m2
14:24 39.2 °F /  4.0 °C 37.4 °F /  3.0 °C 30in /  1017.3hPa SE 10.6mph /  17km/h 5mph /  8km/h 88% 0in /  0.00mm 0.00 W/m2
14:29 39.2 °F /  4.0 °C 37.4 °F /  3.0 °C 30in /  1017.2hPa SE 8.1mph /  13km/h 5mph /  8km/h 88% 0in /  0.00mm 0.00 W/m2
14:34 39.2 °F /  4.0 °C 37.4 °F /  3.0 °C 30in /  1017.1hPa SE 9.3mph /  15km/h 4.3mph /  7km/h 88% 0in /  0.00mm 0.00 W/m2
14:39 39.2 °F /  4.0 °C 37.4 °F /  3.0 °C 30in /  1017.0hPa SE 6.8mph /  11km/h 3.7mph /  6km/h 88% 0in /  0.00mm 0.00 W/m2
14:44 39.2 °F /  4.0 °C 37.4 °F /  3.0 °C 30in /  1017.0hPa SE 6.8mph /  11km/h 4.3mph /  7km/h 88% 0in /  0.00mm 0.00 W/m2
14:49 39.2 °F /  4.0 °C 37.4 °F /  3.0 °C 30in /  1017.0hPa SE 5mph /  8km/h 2.5mph /  4km/h 88% 0in /  0.00mm 0.00 W/m2
14:54 39.2 °F /  4.0 °C 35.6 °F /  2.0 °C 30in /  1017.0hPa SE 6.2mph /  10km/h 3.1mph /  5km/h 87% 0in /  0.00mm 0.00 W/m2
14:59 39.2 °F /  4.0 °C 35.6 °F /  2.0 °C 30in /  1017.0hPa SE 5mph /  8km/h 1.2mph /  2km/h 87% 0in /  0.00mm 0.00 W/m2
15:04 39.2 °F /  4.0 °C 35.6 °F /  2.0 °C 30in /  1017.0hPa SE 5mph /  8km/h 2.5mph /  4km/h 87% 0in /  0.00mm 0.00 W/m2
15:09 39.2 °F /  4.0 °C 35.6 °F /  2.0 °C 30in /  1017.0hPa SE 5mph /  8km/h 2.5mph /  4km/h 87% 0in /  0.00mm 0.00 W/m2
15:14 39.2 °F /  4.0 °C 35.6 °F /  2.0 °C 30in /  1016.9hPa SE 6.2mph /  10km/h 3.7mph /  6km/h 87% 0in /  0.00mm 0.00 W/m2
15:19 39.2 °F /  4.0 °C 35.6 °F /  2.0 °C 30in /  1016.8hPa SE 4.3mph /  7km/h 3.1mph /  5km/h 87% 0in /  0.00mm 0.00 W/m2
15:24 39.2 °F /  4.0 °C 35.6 °F /  2.0 °C 30in /  1016.7hPa Calm     87% 0in /  0.00mm 0.00 W/m2
15:29 39.2 °F /  4.0 °C 35.6 °F /  2.0 °C 30in /  1016.7hPa Calm     87% 0in /  0.00mm 0.00 W/m2
15:34 39.2 °F /  4.0 °C 35.6 °F /  2.0 °C 30in /  1016.6hPa Calm     87% 0in /  0.00mm 0.00 W/m2
15:39 39.2 °F /  4.0 °C 35.6 °F /  2.0 °C 30in /  1016.5hPa Calm     87% 0in /  0.00mm 0.00 W/m2
15:44 39.2 °F /  4.0 °C 35.6 °F /  2.0 °C 30in /  1016.5hPa Calm     87% 0in /  0.00mm 0.00 W/m2
15:49 39.2 °F /  4.0 °C 35.6 °F /  2.0 °C 30in /  1016.5hPa Calm     87% 0in /  0.00mm 0.00 W/m2
15:54 39.2 °F /  4.0 °C 35.6 °F /  2.0 °C 30in /  1016.4hPa Calm     87% 0in /  0.00mm 0.00 W/m2
15:59 37.4 °F /  3.0 °C 35.6 °F /  2.0 °C 30in /  1016.4hPa Calm     87% 0in /  0.00mm 0.00 W/m2
16:04 37.4 °F /  3.0 °C 35.6 °F /  2.0 °C 30in /  1016.3hPa Calm     87% 0in /  0.00mm 0.00 W/m2
16:09 37.4 °F /  3.0 °C 33.8 °F /  1.0 °C 30in /  1016.3hPa Calm     87% 0in /  0.00mm 0.00 W/m2
16:14 37.4 °F /  3.0 °C 33.8 °F /  1.0 °C 30in /  1016.2hPa Calm     87% 0in /  0.00mm 0.00 W/m2
16:19 37.4 °F /  3.0 °C 33.8 °F /  1.0 °C 30in /  1016.1hPa Calm     87% 0in /  0.00mm 0.00 W/m2
16:24 37.4 °F /  3.0 °C 33.8 °F /  1.0 °C 30in /  1016.2hPa Calm     88% 0in /  0.00mm 0.00 W/m2
16:29 37.4 °F /  3.0 °C 33.8 °F /  1.0 °C 30in /  1016.2hPa Calm     88% 0in /  0.00mm 0.00 W/m2
16:34 37.4 °F /  3.0 °C 33.8 °F /  1.0 °C 30in /  1016.1hPa Calm     88% 0in /  0.00mm 0.00 W/m2
16:39 37.4 °F /  3.0 °C 33.8 °F /  1.0 °C 30in /  1016.1hPa Calm     88% 0in /  0.00mm 0.00 W/m2
16:44 37.4 °F /  3.0 °C 33.8 °F /  1.0 °C 30in /  1016.0hPa Calm     88% 0in /  0.00mm 0.00 W/m2
16:49 37.4 °F /  3.0 °C 33.8 °F /  1.0 °C 30in /  1016.0hPa Calm     88% 0in /  0.00mm 0.00 W/m2
16:54 37.4 °F /  3.0 °C 33.8 °F /  1.0 °C 30in /  1015.9hPa Calm     88% 0in /  0.00mm 0.00 W/m2
16:59 37.4 °F /  3.0 °C 33.8 °F /  1.0 °C 30in /  1015.9hPa Calm     89% 0in /  0.00mm 0.00 W/m2
17:04 35.6 °F /  2.0 °C 33.8 °F /  1.0 °C 30in /  1015.8hPa Calm     89% 0in /  0.00mm 0.00 W/m2
17:09 35.6 °F /  2.0 °C 33.8 °F /  1.0 °C 30in /  1015.8hPa Calm     89% 0in /  0.00mm 0.00 W/m2
17:14 35.6 °F /  2.0 °C 33.8 °F /  1.0 °C 30in /  1015.7hPa Calm     89% 0in /  0.00mm 0.00 W/m2
17:19 35.6 °F /  2.0 °C 33.8 °F /  1.0 °C 30in /  1015.5hPa Calm     89% 0in /  0.00mm 0.00 W/m2
17:24 35.6 °F /  2.0 °C 33.8 °F /  1.0 °C 30in /  1015.5hPa SE 2.5mph /  4km/h 0.6mph /  1km/h 89% 0in /  0.00mm 0.00 W/m2
17:29 35.6 °F /  2.0 °C 33.8 °F /  1.0 °C 30in /  1015.4hPa Calm     89% 0in /  0.00mm 0.00 W/m2
17:34 35.6 °F /  2.0 °C 33.8 °F /  1.0 °C 30in /  1015.3hPa Calm     89% 0in /  0.00mm 0.00 W/m2
17:39 35.6 °F /  2.0 °C 33.8 °F /  1.0 °C 30in /  1015.3hPa Calm     89% 0in /  0.00mm 0.00 W/m2
17:44 35.6 °F /  2.0 °C 33.8 °F /  1.0 °C 30in /  1015.3hPa Calm     89% 0in /  0.00mm 0.00 W/m2
17:49 35.6 °F /  2.0 °C 33.8 °F /  1.0 °C 30in /  1015.3hPa Calm     89% 0in /  0.00mm 0.00 W/m2
17:54 35.6 °F /  2.0 °C 33.8 °F /  1.0 °C 30in /  1015.2hPa Calm     89% 0in /  0.00mm 0.00 W/m2
17:59 35.6 °F /  2.0 °C 32 °F /  0.0 °C 30in /  1015.0hPa Calm     89% 0in /  0.00mm 0.00 W/m2
18:04 35.6 °F /  2.0 °C 32 °F /  0.0 °C 30in /  1014.9hPa Calm     89% 0in /  0.00mm 0.00 W/m2
18:09 35.6 °F /  2.0 °C 32 °F /  0.0 °C 30in /  1014.9hPa Calm     89% 0in /  0.00mm 0.00 W/m2
18:14 35.6 °F /  2.0 °C 32 °F /  0.0 °C 30in /  1014.8hPa Calm     89% 0in /  0.00mm 0.00 W/m2
18:19 35.6 °F /  2.0 °C 32 °F /  0.0 °C 30in /  1014.8hPa Calm     89% 0in /  0.00mm 0.00 W/m2
18:24 35.6 °F /  2.0 °C 33.8 °F /  1.0 °C 30in /  1014.7hPa Calm     90% 0in /  0.00mm 0.00 W/m2
18:29 35.6 °F /  2.0 °C 33.8 °F /  1.0 °C 30in /  1014.7hPa Calm     90% 0in /  0.00mm 0.00 W/m2
18:34 35.6 °F /  2.0 °C 33.8 °F /  1.0 °C 30in /  1014.6hPa SE 2.5mph /  4km/h 0.6mph /  1km/h 90% 0in /  0.00mm 0.00 W/m2
18:39 35.6 °F /  2.0 °C 33.8 °F /  1.0 °C 30in /  1014.6hPa Calm     90% 0in /  0.00mm 0.00 W/m2
18:44 37.4 °F /  3.0 °C 33.8 °F /  1.0 °C 30in /  1014.5hPa SE 5mph /  8km/h 1.9mph /  3km/h 90% 0in /  0.00mm 0.00 W/m2
18:49 37.4 °F /  3.0 °C 33.8 °F /  1.0 °C 30in /  1014.5hPa SE 2.5mph /  4km/h 0.6mph /  1km/h 90% 0in /  0.00mm 0.00 W/m2
18:54 37.4 °F /  3.0 °C 33.8 °F /  1.0 °C 30in /  1014.4hPa Calm     90% 0in /  0.00mm 0.00 W/m2
18:59 37.4 °F /  3.0 °C 33.8 °F /  1.0 °C 30in /  1014.4hPa Calm     90% 0in /  0.00mm 0.00 W/m2
19:04 37.4 °F /  3.0 °C 33.8 °F /  1.0 °C 30in /  1014.4hPa Calm     90% 0in /  0.00mm 0.00 W/m2
19:09 37.4 °F /  3.0 °C 33.8 °F /  1.0 °C 30in /  1014.3hPa Calm     90% 0in /  0.00mm 0.00 W/m2
19:14 37.4 °F /  3.0 °C 33.8 °F /  1.0 °C 30in /  1014.3hPa Calm     89% 0in /  0.00mm 0.00 W/m2
19:19 37.4 °F /  3.0 °C 33.8 °F /  1.0 °C 30in /  1014.2hPa Calm     89% 0in /  0.00mm 0.00 W/m2
19:24 37.4 °F /  3.0 °C 33.8 °F /  1.0 °C 30in /  1014.2hPa Calm     90% 0in /  0.00mm 0.00 W/m2
19:29 37.4 °F /  3.0 °C 33.8 °F /  1.0 °C 29.9in /  1014.1hPa Calm     90% 0in /  0.00mm 0.00 W/m2
19:34 37.4 °F /  3.0 °C 33.8 °F /  1.0 °C 29.9in /  1014.1hPa Calm     90% 0in /  0.00mm 0.00 W/m2
19:39 37.4 °F /  3.0 °C 33.8 °F /  1.0 °C 29.9in /  1014.1hPa Calm     90% 0in /  0.00mm 0.00 W/m2
19:44 37.4 °F /  3.0 °C 33.8 °F /  1.0 °C 29.9in /  1013.9hPa Calm     90% 0in /  0.00mm 0.00 W/m2
19:49 37.4 °F /  3.0 °C 33.8 °F /  1.0 °C 29.9in /  1013.9hPa SE 5mph /  8km/h 2.5mph /  4km/h 90% 0in /  0.00mm 0.00 W/m2
19:54 37.4 °F /  3.0 °C 33.8 °F /  1.0 °C 29.9in /  1013.9hPa SE 5mph /  8km/h 3.7mph /  6km/h 90% 0in /  0.00mm 0.00 W/m2
19:59 37.4 °F /  3.0 °C 35.6 °F /  2.0 °C 29.9in /  1013.8hPa SE 6.2mph /  10km/h 3.1mph /  5km/h 90% 0in /  0.00mm 0.00 W/m2
20:04 37.4 °F /  3.0 °C 35.6 °F /  2.0 °C 29.9in /  1013.8hPa SE 10.6mph /  17km/h 5.6mph /  9km/h 90% 0in /  0.00mm 0.00 W/m2
20:09 37.4 °F /  3.0 °C 35.6 °F /  2.0 °C 29.9in /  1013.8hPa SE 11.2mph /  18km/h 6.2mph /  10km/h 90% 0in /  0.00mm 0.00 W/m2
20:14 37.4 °F /  3.0 °C 35.6 °F /  2.0 °C 29.9in /  1013.8hPa SE 11.8mph /  19km/h 6.8mph /  11km/h 90% 0in /  0.00mm 0.00 W/m2
20:19 37.4 °F /  3.0 °C 35.6 °F /  2.0 °C 29.9in /  1013.7hPa SE 11.8mph /  19km/h 6.2mph /  10km/h 90% 0in /  0.00mm 0.00 W/m2
20:24 37.4 °F /  3.0 °C 35.6 °F /  2.0 °C 29.9in /  1013.7hPa SE 10.6mph /  17km/h 5.6mph /  9km/h 89% 0in /  0.00mm 0.00 W/m2
20:29 37.4 °F /  3.0 °C 35.6 °F /  2.0 °C 29.9in /  1013.7hPa SE 11.8mph /  19km/h 6.8mph /  11km/h 89% 0in /  0.00mm 0.00 W/m2
20:34 37.4 °F /  3.0 °C 35.6 °F /  2.0 °C 29.9in /  1013.7hPa SE 11.8mph /  19km/h 6.8mph /  11km/h 89% 0in /  0.00mm 0.00 W/m2
20:39 37.4 °F /  3.0 °C 35.6 °F /  2.0 °C 29.9in /  1013.6hPa SE 11.8mph /  19km/h 6.8mph /  11km/h 89% 0in /  0.00mm 0.00 W/m2
20:44 37.4 °F /  3.0 °C 33.8 °F /  1.0 °C 29.9in /  1013.6hPa SE 11.8mph /  19km/h 5mph /  8km/h 88% 0in /  0.00mm 0.00 W/m2
20:49 37.4 °F /  3.0 °C 33.8 °F /  1.0 °C 29.9in /  1013.5hPa SSE 6.8mph /  11km/h 3.7mph /  6km/h 88% 0in /  0.00mm 0.00 W/m2
20:54 37.4 °F /  3.0 °C 33.8 °F /  1.0 °C 29.9in /  1013.6hPa SE 10.6mph /  17km/h 6.2mph /  10km/h 88% 0in /  0.00mm 0.00 W/m2
20:59 37.4 °F /  3.0 °C 33.8 °F /  1.0 °C 29.9in /  1013.6hPa SE 11.8mph /  19km/h 6.8mph /  11km/h 88% 0in /  0.00mm 0.00 W/m2
21:04 37.4 °F /  3.0 °C 33.8 °F /  1.0 °C 29.9in /  1013.6hPa SE 14.3mph /  23km/h 6.8mph /  11km/h 88% 0in /  0.00mm 0.00 W/m2
21:09 37.4 °F /  3.0 °C 33.8 °F /  1.0 °C 29.9in /  1013.4hPa SE 10.6mph /  17km/h 5mph /  8km/h 88% 0in /  0.00mm 0.00 W/m2
21:14 37.4 °F /  3.0 °C 33.8 °F /  1.0 °C 29.9in /  1013.4hPa SE 9.3mph /  15km/h 5mph /  8km/h 89% 0in /  0.00mm 0.00 W/m2
21:19 35.6 °F /  2.0 °C 33.8 °F /  1.0 °C 29.9in /  1013.4hPa SE 6.8mph /  11km/h 5mph /  8km/h 89% 0in /  0.00mm 0.00 W/m2
21:24 35.6 °F /  2.0 °C 33.8 °F /  1.0 °C 29.9in /  1013.3hPa SE 6.2mph /  10km/h 1.9mph /  3km/h 89% 0in /  0.00mm 0.00 W/m2
21:29 35.6 °F /  2.0 °C 33.8 °F /  1.0 °C 29.9in /  1013.3hPa SE 8.1mph /  13km/h 3.1mph /  5km/h 89% 0in /  0.00mm 0.00 W/m2
21:34 35.6 °F /  2.0 °C 33.8 °F /  1.0 °C 29.9in /  1013.3hPa SE 9.3mph /  15km/h 3.1mph /  5km/h 89% 0in /  0.00mm 0.00 W/m2
21:39 35.6 °F /  2.0 °C 33.8 °F /  1.0 °C 29.9in /  1013.2hPa SE 9.3mph /  15km/h 4.3mph /  7km/h 89% 0in /  0.00mm 0.00 W/m2
21:44 35.6 °F /  2.0 °C 33.8 °F /  1.0 °C 29.9in /  1013.2hPa SE 8.7mph /  14km/h 3.1mph /  5km/h 89% 0in /  0.00mm 0.00 W/m2
21:49 35.6 °F /  2.0 °C 33.8 °F /  1.0 °C 29.9in /  1013.1hPa SE 9.3mph /  15km/h 3.7mph /  6km/h 89% 0in /  0.00mm 0.00 W/m2
21:54 35.6 °F /  2.0 °C 33.8 °F /  1.0 °C 29.9in /  1013.0hPa SE 6.2mph /  10km/h 4.3mph /  7km/h 89% 0in /  0.00mm 0.00 W/m2
21:59 35.6 °F /  2.0 °C 33.8 °F /  1.0 °C 29.9in /  1012.9hPa SE 6.8mph /  11km/h 3.1mph /  5km/h 88% 0in /  0.00mm 0.00 W/m2
22:04 35.6 °F /  2.0 °C 33.8 °F /  1.0 °C 29.9in /  1012.8hPa SE 6.8mph /  11km/h 1.9mph /  3km/h 89% 0in /  0.00mm 0.00 W/m2
22:09 35.6 °F /  2.0 °C 33.8 °F /  1.0 °C 29.9in /  1012.7hPa SE 9.3mph /  15km/h 3.7mph /  6km/h 89% 0in /  0.00mm 0.00 W/m2
22:14 35.6 °F /  2.0 °C 33.8 °F /  1.0 °C 29.9in /  1012.7hPa SE 5mph /  8km/h 2.5mph /  4km/h 89% 0in /  0.00mm 0.00 W/m2
22:19 35.6 °F /  2.0 °C 33.8 °F /  1.0 °C 29.9in /  1012.6hPa SE 2.5mph /  4km/h 0.6mph /  1km/h 89% 0in /  0.00mm 0.00 W/m2
22:24 35.6 °F /  2.0 °C 33.8 °F /  1.0 °C 29.9in /  1012.6hPa SE 5mph /  8km/h 1.9mph /  3km/h 89% 0in /  0.00mm 0.00 W/m2
22:29 35.6 °F /  2.0 °C 33.8 °F /  1.0 °C 29.9in /  1012.6hPa SE 6.8mph /  11km/h 3.1mph /  5km/h 89% 0in /  0.00mm 0.00 W/m2
22:34 35.6 °F /  2.0 °C 33.8 °F /  1.0 °C 29.9in /  1012.5hPa SE 6.8mph /  11km/h 3.1mph /  5km/h 89% 0in /  0.00mm 0.00 W/m2
22:39 35.6 °F /  2.0 °C 33.8 °F /  1.0 °C 29.9in /  1012.5hPa SE 10.6mph /  17km/h 5mph /  8km/h 89% 0in /  0.00mm 0.00 W/m2
22:44 35.6 °F /  2.0 °C 33.8 °F /  1.0 °C 29.9in /  1012.4hPa SE 6.8mph /  11km/h 3.1mph /  5km/h 89% 0in /  0.00mm 0.00 W/m2
22:49 35.6 °F /  2.0 °C 33.8 °F /  1.0 °C 29.9in /  1012.3hPa SE 5mph /  8km/h 3.1mph /  5km/h 89% 0in /  0.00mm 0.00 W/m2
22:54 35.6 °F /  2.0 °C 32 °F /  0.0 °C 29.9in /  1012.3hPa SE 6.8mph /  11km/h 3.7mph /  6km/h 88% 0in /  0.00mm 0.00 W/m2
22:59 35.6 °F /  2.0 °C 32 °F /  0.0 °C 29.9in /  1012.2hPa SE 8.7mph /  14km/h 3.7mph /  6km/h 88% 0in /  0.00mm 0.00 W/m2
23:04 35.6 °F /  2.0 °C 33.8 °F /  1.0 °C 29.9in /  1012.1hPa SSE 9.3mph /  15km/h 4.3mph /  7km/h 88% 0in /  0.00mm 0.00 W/m2
23:09 35.6 °F /  2.0 °C 33.8 °F /  1.0 °C 29.9in /  1012.1hPa SE 6.8mph /  11km/h 5mph /  8km/h 88% 0in /  0.00mm 0.00 W/m2
23:14 35.6 °F /  2.0 °C 32 °F /  0.0 °C 29.9in /  1012.1hPa SE 6.8mph /  11km/h 3.7mph /  6km/h 87% 0in /  0.00mm 0.00 W/m2
23:19 35.6 °F /  2.0 °C 32 °F /  0.0 °C 29.9in /  1012.1hPa SE 9.3mph /  15km/h 4.3mph /  7km/h 87% 0in /  0.00mm 0.00 W/m2
23:24 35.6 °F /  2.0 °C 32 °F /  0.0 °C 29.9in /  1012.1hPa SE 11.8mph /  19km/h 4.3mph /  7km/h 87% 0in /  0.00mm 0.00 W/m2
23:29 35.6 °F /  2.0 °C 32 °F /  0.0 °C 29.9in /  1012.1hPa SE 6.8mph /  11km/h 2.5mph /  4km/h 87% 0in /  0.00mm 0.00 W/m2
23:34 35.6 °F /  2.0 °C 32 °F /  0.0 °C 29.9in /  1012.1hPa SE 10.6mph /  17km/h 5mph /  8km/h 87% 0in /  0.00mm 0.00 W/m2
23:39 35.6 °F /  2.0 °C 32 °F /  0.0 °C 29.9in /  1011.9hPa SE 10.6mph /  17km/h 4.3mph /  7km/h 86% 0in /  0.00mm 0.00 W/m2
23:44 35.6 °F /  2.0 °C 32 °F /  0.0 °C 29.9in /  1011.9hPa SSE 8.1mph /  13km/h 3.7mph /  6km/h 86% 0in /  0.00mm 0.00 W/m2
23:49 35.6 °F /  2.0 °C 32 °F /  0.0 °C 29.9in /  1011.9hPa SE 9.3mph /  15km/h 5mph /  8km/h 86% 0in /  0.00mm 0.00 W/m2
23:54 35.6 °F /  2.0 °C 32 °F /  0.0 °C 29.9in /  1011.9hPa SE 9.3mph /  15km/h 5mph /  8km/h 86% 0in /  0.00mm 0.00 W/m2
23:59 35.6 °F /  2.0 °C 32 °F /  0.0 °C 29.9in /  1011.9hPa SSE 11.8mph /  19km/h 5mph /  8km/h 86% 0in /  0.00mm 0.00 W/m2
Vejrstation Sortsø Strand
Compliments of Weather Underground - 2.25 mb

© 2006-2021 strandvejr.dk